Weather at Mercy Anderson Heliport

Public forecast

Using degrees Fahrenheit for public forecast. Weather courtesy of forecast.io.

Closest aviation weather report (METAR) to Mercy Anderson Heliport

Closest report is Cincinnati Municipal Airport Lunken Field, 3.4 nm (6.2 km) WNW. Retrieved 2021/06/23 01:53 UTC (50 minutes ago):

KLUK 230153Z 00000KT 10SM CLR 14/09 A3007 RMK AO2 SLP180 T01440089

Closest aviation forecast (TAF) to Mercy Anderson Heliport

Closest forecast is Cincinnati Municipal Airport Lunken Field, 3.4 nm (6.2 km) WNW. Retrieved 2021-06-23 00:36 UTC (2 hours ago):

TAF KLUK 222335Z 2300/2324 VRB03KT P6SM SKC TEMPO 2308/2312 00000KT 4SM BR FM231200 14005KT P6SM BKN250 FM231500 25007KT P6SM SCT150 BKN250